TimeMDT,TemperatureF,Dew PointF,Humidity,Sea Level PressureIn,VisibilityMPH,Wind Direction,Wind SpeedMPH,Gust SpeedMPH,PrecipitationIn,Events,Conditions,WindDirDegrees,DateUTC
5:00 AM,21.2,10.4,63,30.02,15.0,WNW,4.6,-,N/A,,Mostly Cloudy,300,2012-03-22 11:00:00
6:00 AM,23,10,44,29.93,15,North,3.5,,,,Overcast,350,2012-03-22 12:00:00
6:00 AM,23.0,10.4,59,29.93,15.0,North,3.5,-,N/A,,Overcast,350,2012-03-22 12:00:00
6:27 AM,-9999,-9999,N/A,-9999,7.0,SSE,8.1,-,N/A,,Unknown,160,2012-03-22 12:27:00
7:00 AM,21.2,17.6,86,29.93,5.0,Calm,Calm,-,N/A,Snow,Light Snow Showers,0,2012-03-22 13:00:00
8:00 AM,21.2,19.4,93,29.91,3.0,North,2.3,-,N/A,Snow,Light Snow,350,2012-03-22 14:00:00
8:15 AM,-9999,-9999,N/A,-9999,2.5,North,2.3,-,N/A,,Unknown,360,2012-03-22 14:15:00
8:37 AM,-9999,-9999,N/A,-9999,1.5,Calm,Calm,-,N/A,,Unknown,0,2012-03-22 14:37:00
9:00 AM,23.0,19.4,86,29.94,1.5,NW,2.3,-,N/A,Snow,Light Snow,310,2012-03-22 15:00:00
9:29 AM,-9999,-9999,N/A,-9999,3.0,NW,2.3,-,N/A,,Unknown,320,2012-03-22 15:29:00
10:00 AM,24.8,21.2,86,29.91,6.0,NE,2.3,-,N/A,Snow,Light Snow,40,2012-03-22 16:00:00
10:50 AM,-9999,-9999,N/A,-9999,2.0,North,2.3,-,N/A,,Unknown,350,2012-03-22 16:50:00
11:00 AM,24.8,23.0,93,29.91,2.0,NNW,4.6,-,N/A,Snow,Light Snow,330,2012-03-22 17:00:00
12:00 PM,26,23,83,29.92,5,NE,2.3,,,Snow,Light Snow,50,2012-03-22 18:00:00
12:00 PM,26.6,23.0,86,29.92,5.0,NNW,2.3,-,N/A,Snow,Light Snow,340,2012-03-22 18:00:00
1:00 PM,28.4,23.0,80,29.88,10.0,East,9.2,-,N/A,,Mostly Cloudy,90,2012-03-22 19:00:00
2:00 PM,28.4,23.0,80,29.90,15.0,SE,4.6,-,N/A,,Overcast,140,2012-03-22 20:00:00
3:00 PM,30.2,23.0,75,29.92,15.0,North,5.8,-,N/A,,Overcast,350,2012-03-22 21:00:00
4:00 PM,32.0,24.8,75,29.94,15.0,Calm,Calm,-,N/A,,Mostly Cloudy,0,2012-03-22 22:00:00
5:00 PM,35.6,24.8,65,29.96,20.0,West,3.5,-,N/A,,Scattered Clouds,280,2012-03-22 23:00:00
6:00 PM,35,23,49,29.96,19,NW,5.8,,,,Partly Cloudy,310,2012-03-23 00:00:00
6:00 PM,33.8,23.0,65,29.96,20.0,WNW,5.8,-,N/A,,Scattered Clouds,300,2012-03-23 00:00:00
7:00 PM,32.0,24.8,75,29.99,20.0,NNE,9.2,-,N/A,,Scattered Clouds,20,2012-03-23 01:00:00
8:00 PM,26.6,21.2,80,30.01,20.0,NE,6.9,-,N/A,,Scattered Clouds,40,2012-03-23 02:00:00
9:00 PM,24.8,21.2,86,30.09,20.0,North,6.9,-,N/A,,Partly Cloudy,350,2012-03-23 03:00:00
10:00 PM,24.8,19.4,80,29.95,15.0,North,4.6,-,N/A,,Partly Cloudy,350,2012-03-23 04:00:00